sensor_id;sensor_type;location;lat;lon;timestamp;pressure;altitude;pressure_sealevel;temperature;humidity
75745;BME280;74462;51.366;-0.222;2024-01-25T00:00:12;102741.29;;;8.44;74.28
75745;BME280;74462;51.366;-0.222;2024-01-25T00:01:17;102735.95;;;8.44;74.56
75745;BME280;74462;51.366;-0.222;2024-01-25T00:02:21;102733.65;;;8.40;74.47
75745;BME280;74462;51.366;-0.222;2024-01-25T00:03:26;102735.29;;;8.44;74.19
75745;BME280;74462;51.366;-0.222;2024-01-25T00:04:30;102733.32;;;8.45;74.05
75745;BME280;74462;51.366;-0.222;2024-01-25T00:05:35;102737.71;;;8.45;74.13
75745;BME280;74462;51.366;-0.222;2024-01-25T00:06:39;102736.83;;;8.45;74.06
75745;BME280;74462;51.366;-0.222;2024-01-25T00:07:50;102735.58;;;8.36;74.25
75745;BME280;74462;51.366;-0.222;2024-01-25T00:08:54;102736.45;;;8.31;74.04
75745;BME280;74462;51.366;-0.222;2024-01-25T00:09:59;102732.86;;;8.33;74.02
75745;BME280;74462;51.366;-0.222;2024-01-25T00:11:04;102736.79;;;8.37;73.44
75745;BME280;74462;51.366;-0.222;2024-01-25T00:12:10;102736.89;;;8.39;73.57
75745;BME280;74462;51.366;-0.222;2024-01-25T00:13:14;102737.70;;;8.41;73.34
75745;BME280;74462;51.366;-0.222;2024-01-25T00:14:19;102738.35;;;8.43;73.13
75745;BME280;74462;51.366;-0.222;2024-01-25T00:15:23;102740.02;;;8.44;73.07
75745;BME280;74462;51.366;-0.222;2024-01-25T00:16:28;102739.44;;;8.42;73.26
75745;BME280;74462;51.366;-0.222;2024-01-25T00:17:33;102737.26;;;8.43;73.48
75745;BME280;74462;51.366;-0.222;2024-01-25T00:18:38;102733.69;;;8.44;73.39
75745;BME280;74462;51.366;-0.222;2024-01-25T00:19:42;102731.44;;;8.43;72.98
75745;BME280;74462;51.366;-0.222;2024-01-25T00:20:47;102733.00;;;8.34;72.75
75745;BME280;74462;51.366;-0.222;2024-01-25T00:21:52;102728.10;;;8.27;72.59
75745;BME280;74462;51.366;-0.222;2024-01-25T00:22:56;102725.02;;;8.30;73.13
75745;BME280;74462;51.366;-0.222;2024-01-25T00:24:01;102727.19;;;8.28;73.07
75745;BME280;74462;51.366;-0.222;2024-01-25T00:25:06;102727.13;;;8.25;73.05
75745;BME280;74462;51.366;-0.222;2024-01-25T00:26:11;102729.96;;;8.20;74.17
75745;BME280;74462;51.366;-0.222;2024-01-25T00:27:15;102723.81;;;8.19;74.34
75745;BME280;74462;51.366;-0.222;2024-01-25T00:28:20;102726.85;;;8.23;74.15
75745;BME280;74462;51.366;-0.222;2024-01-25T00:29:24;102728.83;;;8.22;74.13
75745;BME280;74462;51.366;-0.222;2024-01-25T00:30:29;102724.64;;;8.16;74.80
75745;BME280;74462;51.366;-0.222;2024-01-25T00:31:33;102719.72;;;8.15;74.00
75745;BME280;74462;51.366;-0.222;2024-01-25T00:32:38;102718.87;;;8.10;74.40
75745;BME280;74462;51.366;-0.222;2024-01-25T00:33:42;102714.20;;;8.11;74.25
75745;BME280;74462;51.366;-0.222;2024-01-25T00:34:48;102715.58;;;7.98;74.55
75745;BME280;74462;51.366;-0.222;2024-01-25T00:35:53;102715.33;;;7.99;74.43
75745;BME280;74462;51.366;-0.222;2024-01-25T00:36:59;102716.59;;;7.80;75.72
75745;BME280;74462;51.366;-0.222;2024-01-25T00:38:04;102714.75;;;7.87;75.52
75745;BME280;74462;51.366;-0.222;2024-01-25T00:39:10;102708.71;;;7.92;75.84
75745;BME280;74462;51.366;-0.222;2024-01-25T00:40:15;102705.92;;;7.91;75.84
75745;BME280;74462;51.366;-0.222;2024-01-25T00:41:22;102707.42;;;7.94;75.84
75745;BME280;74462;51.366;-0.222;2024-01-25T00:42:27;102706.41;;;7.83;75.93
75745;BME280;74462;51.366;-0.222;2024-01-25T00:43:33;102703.67;;;7.75;76.51
75745;BME280;74462;51.366;-0.222;2024-01-25T00:44:39;102700.34;;;7.70;77.13
75745;BME280;74462;51.366;-0.222;2024-01-25T00:45:44;102701.46;;;7.73;76.95
75745;BME280;74462;51.366;-0.222;2024-01-25T00:46:49;102697.34;;;7.80;76.92
75745;BME280;74462;51.366;-0.222;2024-01-25T00:47:57;102701.48;;;7.77;76.91
75745;BME280;74462;51.366;-0.222;2024-01-25T00:49:03;102698.98;;;7.73;77.33
75745;BME280;74462;51.366;-0.222;2024-01-25T00:50:08;102697.79;;;7.82;76.95
75745;BME280;74462;51.366;-0.222;2024-01-25T00:51:16;102693.32;;;7.88;76.80
75745;BME280;74462;51.366;-0.222;2024-01-25T00:52:25;102691.53;;;7.88;76.62
75745;BME280;74462;51.366;-0.222;2024-01-25T00:53:31;102689.69;;;7.86;76.63
75745;BME280;74462;51.366;-0.222;2024-01-25T00:54:37;102689.64;;;7.87;76.16
75745;BME280;74462;51.366;-0.222;2024-01-25T00:55:42;102691.52;;;7.84;76.33
75745;BME280;74462;51.366;-0.222;2024-01-25T00:56:48;102692.77;;;7.79;75.83
75745;BME280;74462;51.366;-0.222;2024-01-25T00:57:56;102693.14;;;7.73;75.75
75745;BME280;74462;51.366;-0.222;2024-01-25T00:59:03;102691.95;;;7.72;75.56
75745;BME280;74462;51.366;-0.222;2024-01-25T01:00:10;102689.69;;;7.76;75.41
75745;BME280;74462;51.366;-0.222;2024-01-25T01:01:15;102688.58;;;7.77;74.94
75745;BME280;74462;51.366;-0.222;2024-01-25T01:02:23;102691.67;;;7.79;74.99
75745;BME280;74462;51.366;-0.222;2024-01-25T01:03:29;102693.05;;;7.81;74.71
75745;BME280;74462;51.366;-0.222;2024-01-25T01:04:34;102697.02;;;7.78;74.86
75745;BME280;74462;51.366;-0.222;2024-01-25T01:05:40;102696.42;;;7.80;74.59
75745;BME280;74462;51.366;-0.222;2024-01-25T01:06:45;102696.41;;;7.81;74.67
75745;BME280;74462;51.366;-0.222;2024-01-25T01:07:53;102694.75;;;7.72;74.75
75745;BME280;74462;51.366;-0.222;2024-01-25T01:08:58;102691.94;;;7.67;74.65
75745;BME280;74462;51.366;-0.222;2024-01-25T01:10:03;102685.17;;;7.59;75.04
75745;BME280;74462;51.366;-0.222;2024-01-25T01:11:07;102688.89;;;7.54;75.49
75745;BME280;74462;51.366;-0.222;2024-01-25T01:12:12;102685.99;;;7.51;75.18
75745;BME280;74462;51.366;-0.222;2024-01-25T01:13:17;102687.58;;;7.51;75.09
75745;BME280;74462;51.366;-0.222;2024-01-25T01:14:21;102686.75;;;7.49;74.97
75745;BME280;74462;51.366;-0.222;2024-01-25T01:15:26;102686.88;;;7.46;75.11
75745;BME280;74462;51.366;-0.222;2024-01-25T01:16:31;102680.96;;;7.48;75.14
75745;BME280;74462;51.366;-0.222;2024-01-25T01:17:36;102677.56;;;7.49;75.31
75745;BME280;74462;51.366;-0.222;2024-01-25T01:18:41;102676.16;;;7.49;74.73
75745;BME280;74462;51.366;-0.222;2024-01-25T01:19:45;102670.44;;;7.46;74.98
75745;BME280;74462;51.366;-0.222;2024-01-25T01:20:50;102669.63;;;7.39;75.63
75745;BME280;74462;51.366;-0.222;2024-01-25T01:21:54;102669.23;;;7.35;75.58
75745;BME280;74462;51.366;-0.222;2024-01-25T01:22:59;102668.22;;;7.33;75.71
75745;BME280;74462;51.366;-0.222;2024-01-25T01:24:03;102669.44;;;7.29;76.84
75745;BME280;74462;51.366;-0.222;2024-01-25T01:25:08;102666.93;;;7.24;76.77
75745;BME280;74462;51.366;-0.222;2024-01-25T01:26:13;102666.95;;;7.24;76.93
75745;BME280;74462;51.366;-0.222;2024-01-25T01:27:18;102666.48;;;7.23;77.12
75745;BME280;74462;51.366;-0.222;2024-01-25T01:28:23;102673.06;;;7.17;77.13
75745;BME280;74462;51.366;-0.222;2024-01-25T01:29:28;102674.52;;;7.15;77.30
75745;BME280;74462;51.366;-0.222;2024-01-25T01:30:32;102678.77;;;7.19;77.64
75745;BME280;74462;51.366;-0.222;2024-01-25T01:31:37;102680.38;;;7.24;77.58
75745;BME280;74462;51.366;-0.222;2024-01-25T01:32:41;102682.33;;;7.29;76.78
75745;BME280;74462;51.366;-0.222;2024-01-25T01:33:46;102684.72;;;7.31;76.66
75745;BME280;74462;51.366;-0.222;2024-01-25T01:34:50;102684.29;;;7.28;76.27
75745;BME280;74462;51.366;-0.222;2024-01-25T01:35:55;102685.77;;;7.31;75.99
75745;BME280;74462;51.366;-0.222;2024-01-25T01:36:59;102690.02;;;7.32;75.67
75745;BME280;74462;51.366;-0.222;2024-01-25T01:38:04;102691.41;;;7.32;75.77
75745;BME280;74462;51.366;-0.222;2024-01-25T01:39:09;102691.05;;;7.22;76.07
75745;BME280;74462;51.366;-0.222;2024-01-25T01:40:14;102689.41;;;7.19;76.14
75745;BME280;74462;51.366;-0.222;2024-01-25T01:41:18;102686.48;;;7.22;76.14
75745;BME280;74462;51.366;-0.222;2024-01-25T01:42:23;102682.20;;;7.18;76.61
75745;BME280;74462;51.366;-0.222;2024-01-25T01:43:27;102681.66;;;7.23;76.42
75745;BME280;74462;51.366;-0.222;2024-01-25T01:44:32;102676.10;;;7.20;76.58
75745;BME280;74462;51.366;-0.222;2024-01-25T01:45:36;102674.77;;;7.23;76.41
75745;BME280;74462;51.366;-0.222;2024-01-25T01:46:41;102668.66;;;7.16;75.96
75745;BME280;74462;51.366;-0.222;2024-01-25T01:47:46;102666.26;;;7.14;76.62
75745;BME280;74462;51.366;-0.222;2024-01-25T01:48:50;102663.40;;;7.15;76.54
75745;BME280;74462;51.366;-0.222;2024-01-25T01:49:55;102657.04;;;7.15;75.68
75745;BME280;74462;51.366;-0.222;2024-01-25T01:50:59;102654.33;;;7.12;76.41
75745;BME280;74462;51.366;-0.222;2024-01-25T01:52:04;102653.15;;;7.15;76.29
75745;BME280;74462;51.366;-0.222;2024-01-25T01:53:09;102654.33;;;7.16;76.31
75745;BME280;74462;51.366;-0.222;2024-01-25T01:54:14;102651.73;;;7.15;76.27
75745;BME280;74462;51.366;-0.222;2024-01-25T01:55:19;102651.24;;;7.08;76.76
75745;BME280;74462;51.366;-0.222;2024-01-25T01:56:26;102650.56;;;7.07;76.66
75745;BME280;74462;51.366;-0.222;2024-01-25T01:57:31;102650.14;;;7.04;76.91
75745;BME280;74462;51.366;-0.222;2024-01-25T01:58:36;102649.83;;;6.98;76.78
75745;BME280;74462;51.366;-0.222;2024-01-25T01:59:41;102653.45;;;6.96;76.95
75745;BME280;74462;51.366;-0.222;2024-01-25T02:00:47;102652.52;;;6.87;76.98
75745;BME280;74462;51.366;-0.222;2024-01-25T02:01:53;102649.38;;;6.85;77.12
75745;BME280;74462;51.366;-0.222;2024-01-25T02:02:57;102649.38;;;6.85;76.63
75745;BME280;74462;51.366;-0.222;2024-01-25T02:04:02;102648.73;;;6.83;76.64
75745;BME280;74462;51.366;-0.222;2024-01-25T02:05:07;102644.05;;;6.75;76.88
75745;BME280;74462;51.366;-0.222;2024-01-25T02:06:12;102649.98;;;6.72;76.90
75745;BME280;74462;51.366;-0.222;2024-01-25T02:07:17;102648.27;;;6.76;76.82
75745;BME280;74462;51.366;-0.222;2024-01-25T02:08:21;102656.59;;;6.75;77.20
75745;BME280;74462;51.366;-0.222;2024-01-25T02:09:26;102657.36;;;6.73;77.27
75745;BME280;74462;51.366;-0.222;2024-01-25T02:10:30;102658.88;;;6.80;77.18
75745;BME280;74462;51.366;-0.222;2024-01-25T02:11:35;102654.65;;;6.87;77.35
75745;BME280;74462;51.366;-0.222;2024-01-25T02:12:40;102653.11;;;6.85;77.34
75745;BME280;74462;51.366;-0.222;2024-01-25T02:13:45;102652.93;;;6.84;77.24
75745;BME280;74462;51.366;-0.222;2024-01-25T02:14:50;102652.57;;;6.85;77.11
75745;BME280;74462;51.366;-0.222;2024-01-25T02:15:54;102653.53;;;6.77;77.38
75745;BME280;74462;51.366;-0.222;2024-01-25T02:16:59;102656.61;;;6.75;77.12
75745;BME280;74462;51.366;-0.222;2024-01-25T02:18:04;102653.71;;;6.71;77.11
75745;BME280;74462;51.366;-0.222;2024-01-25T02:19:09;102651.45;;;6.76;77.33
75745;BME280;74462;51.366;-0.222;2024-01-25T02:20:14;102647.60;;;6.80;77.03
75745;BME280;74462;51.366;-0.222;2024-01-25T02:21:18;102643.13;;;6.82;77.10
75745;BME280;74462;51.366;-0.222;2024-01-25T02:22:23;102638.64;;;6.84;77.08
75745;BME280;74462;51.366;-0.222;2024-01-25T02:23:27;102633.98;;;6.86;77.12
75745;BME280;74462;51.366;-0.222;2024-01-25T02:24:32;102630.45;;;6.86;77.12
75745;BME280;74462;51.366;-0.222;2024-01-25T02:25:36;102630.40;;;6.77;77.84
75745;BME280;74462;51.366;-0.222;2024-01-25T02:26:41;102627.83;;;6.74;77.93
75745;BME280;74462;51.366;-0.222;2024-01-25T02:27:45;102622.49;;;6.76;77.98
75745;BME280;74462;51.366;-0.222;2024-01-25T02:28:50;102614.14;;;6.72;77.87
75745;BME280;74462;51.366;-0.222;2024-01-25T02:29:54;102614.34;;;6.77;77.64
75745;BME280;74462;51.366;-0.222;2024-01-25T02:31:01;102613.77;;;6.68;78.16
75745;BME280;74462;51.366;-0.222;2024-01-25T02:32:08;102613.44;;;6.67;78.18
75745;BME280;74462;51.366;-0.222;2024-01-25T02:33:12;102614.67;;;6.67;78.17
75745;BME280;74462;51.366;-0.222;2024-01-25T02:34:17;102612.98;;;6.70;78.23
75745;BME280;74462;51.366;-0.222;2024-01-25T02:35:21;102612.85;;;6.74;78.41
75745;BME280;74462;51.366;-0.222;2024-01-25T02:36:26;102613.13;;;6.76;78.18
75745;BME280;74462;51.366;-0.222;2024-01-25T02:37:30;102613.40;;;6.78;77.80
75745;BME280;74462;51.366;-0.222;2024-01-25T02:38:35;102617.12;;;6.83;77.59
75745;BME280;74462;51.366;-0.222;2024-01-25T02:39:40;102618.68;;;6.84;76.94
75745;BME280;74462;51.366;-0.222;2024-01-25T02:40:44;102619.88;;;6.91;77.08
75745;BME280;74462;51.366;-0.222;2024-01-25T02:41:49;102622.30;;;6.93;77.29
75745;BME280;74462;51.366;-0.222;2024-01-25T02:42:53;102625.19;;;6.91;76.33
75745;BME280;74462;51.366;-0.222;2024-01-25T02:43:59;102629.16;;;6.93;75.82
75745;BME280;74462;51.366;-0.222;2024-01-25T02:45:04;102631.07;;;6.94;75.73
75745;BME280;74462;51.366;-0.222;2024-01-25T02:46:10;102630.23;;;6.92;75.63
75745;BME280;74462;51.366;-0.222;2024-01-25T02:47:14;102630.41;;;6.93;75.47
75745;BME280;74462;51.366;-0.222;2024-01-25T02:48:19;102631.35;;;6.92;75.41
75745;BME280;74462;51.366;-0.222;2024-01-25T02:49:23;102627.58;;;6.93;75.15
75745;BME280;74462;51.366;-0.222;2024-01-25T02:50:28;102619.52;;;6.92;75.15
75745;BME280;74462;51.366;-0.222;2024-01-25T02:51:32;102616.45;;;6.93;75.25
75745;BME280;74462;51.366;-0.222;2024-01-25T02:52:37;102610.77;;;6.94;75.41
75745;BME280;74462;51.366;-0.222;2024-01-25T02:53:41;102608.02;;;6.97;75.24
75745;BME280;74462;51.366;-0.222;2024-01-25T02:54:46;102607.77;;;6.98;75.44
75745;BME280;74462;51.366;-0.222;2024-01-25T02:55:50;102610.20;;;7.00;75.44
75745;BME280;74462;51.366;-0.222;2024-01-25T02:56:55;102613.98;;;7.03;75.38
75745;BME280;74462;51.366;-0.222;2024-01-25T02:57:59;102614.55;;;7.06;75.18
75745;BME280;74462;51.366;-0.222;2024-01-25T02:59:04;102610.41;;;7.09;75.38
75745;BME280;74462;51.366;-0.222;2024-01-25T03:00:11;102607.33;;;7.12;74.89
75745;BME280;74462;51.366;-0.222;2024-01-25T03:01:16;102604.50;;;7.12;74.62
75745;BME280;74462;51.366;-0.222;2024-01-25T03:02:21;102599.31;;;7.14;74.64
75745;BME280;74462;51.366;-0.222;2024-01-25T03:03:25;102597.44;;;7.17;74.75
75745;BME280;74462;51.366;-0.222;2024-01-25T03:04:29;102597.27;;;7.21;74.84
75745;BME280;74462;51.366;-0.222;2024-01-25T03:05:34;102596.18;;;7.22;74.95
75745;BME280;74462;51.366;-0.222;2024-01-25T03:06:38;102600.06;;;7.22;74.78
75745;BME280;74462;51.366;-0.222;2024-01-25T03:07:43;102600.79;;;7.21;74.46
75745;BME280;74462;51.366;-0.222;2024-01-25T03:08:48;102597.20;;;7.23;74.87
75745;BME280;74462;51.366;-0.222;2024-01-25T03:09:53;102594.05;;;7.22;74.62
75745;BME280;74462;51.366;-0.222;2024-01-25T03:10:57;102590.00;;;7.22;74.75
75745;BME280;74462;51.366;-0.222;2024-01-25T03:12:02;102589.96;;;7.23;74.59
75745;BME280;74462;51.366;-0.222;2024-01-25T03:13:06;102587.82;;;7.23;74.63
75745;BME280;74462;51.366;-0.222;2024-01-25T03:14:11;102588.63;;;7.25;74.82
75745;BME280;74462;51.366;-0.222;2024-01-25T03:15:15;102590.85;;;7.27;74.91
75745;BME280;74462;51.366;-0.222;2024-01-25T03:16:20;102588.23;;;7.27;75.01
75745;BME280;74462;51.366;-0.222;2024-01-25T03:17:24;102585.70;;;7.28;74.94
75745;BME280;74462;51.366;-0.222;2024-01-25T03:18:29;102587.73;;;7.26;75.31
75745;BME280;74462;51.366;-0.222;2024-01-25T03:19:34;102591.15;;;7.29;75.23
75745;BME280;74462;51.366;-0.222;2024-01-25T03:20:38;102590.69;;;7.32;75.45
75745;BME280;74462;51.366;-0.222;2024-01-25T03:21:43;102589.99;;;7.31;75.28
75745;BME280;74462;51.366;-0.222;2024-01-25T03:22:47;102589.21;;;7.34;75.33
75745;BME280;74462;51.366;-0.222;2024-01-25T03:23:53;102585.19;;;7.33;75.39
75745;BME280;74462;51.366;-0.222;2024-01-25T03:24:57;102586.10;;;7.31;75.55
75745;BME280;74462;51.366;-0.222;2024-01-25T03:26:04;102585.20;;;7.32;75.58
75745;BME280;74462;51.366;-0.222;2024-01-25T03:27:08;102583.41;;;7.33;75.61
75745;BME280;74462;51.366;-0.222;2024-01-25T03:28:16;102582.21;;;7.31;75.29
75745;BME280;74462;51.366;-0.222;2024-01-25T03:29:21;102578.27;;;7.33;75.60
75745;BME280;74462;51.366;-0.222;2024-01-25T03:30:26;102578.16;;;7.37;75.35
75745;BME280;74462;51.366;-0.222;2024-01-25T03:31:30;102575.01;;;7.36;75.47
75745;BME280;74462;51.366;-0.222;2024-01-25T03:32:36;102569.69;;;7.36;75.82
75745;BME280;74462;51.366;-0.222;2024-01-25T03:33:40;102568.56;;;7.38;75.61
75745;BME280;74462;51.366;-0.222;2024-01-25T03:34:45;102565.67;;;7.40;75.57
75745;BME280;74462;51.366;-0.222;2024-01-25T03:35:49;102562.60;;;7.42;75.44
75745;BME280;74462;51.366;-0.222;2024-01-25T03:36:54;102568.88;;;7.44;75.23
75745;BME280;74462;51.366;-0.222;2024-01-25T03:37:59;102565.43;;;7.46;75.60
75745;BME280;74462;51.366;-0.222;2024-01-25T03:39:04;102561.30;;;7.48;75.64
75745;BME280;74462;51.366;-0.222;2024-01-25T03:40:11;102560.19;;;7.49;75.77
75745;BME280;74462;51.366;-0.222;2024-01-25T03:41:15;102555.09;;;7.49;75.91
75745;BME280;74462;51.366;-0.222;2024-01-25T03:42:20;102551.38;;;7.48;75.63
75745;BME280;74462;51.366;-0.222;2024-01-25T03:43:24;102544.26;;;7.50;75.84
75745;BME280;74462;51.366;-0.222;2024-01-25T03:44:29;102539.01;;;7.48;75.80
75745;BME280;74462;51.366;-0.222;2024-01-25T03:45:33;102540.67;;;7.47;75.53
75745;BME280;74462;51.366;-0.222;2024-01-25T03:46:37;102544.80;;;7.45;76.09
75745;BME280;74462;51.366;-0.222;2024-01-25T03:47:42;102549.55;;;7.41;76.40
75745;BME280;74462;51.366;-0.222;2024-01-25T03:48:47;102551.92;;;7.44;76.45
75745;BME280;74462;51.366;-0.222;2024-01-25T03:49:52;102554.90;;;7.49;76.26
75745;BME280;74462;51.366;-0.222;2024-01-25T03:50:56;102553.35;;;7.53;76.24
75745;BME280;74462;51.366;-0.222;2024-01-25T03:52:01;102551.95;;;7.57;76.10
75745;BME280;74462;51.366;-0.222;2024-01-25T03:53:06;102550.69;;;7.58;76.00
75745;BME280;74462;51.366;-0.222;2024-01-25T03:54:10;102551.39;;;7.58;75.60
75745;BME280;74462;51.366;-0.222;2024-01-25T03:55:15;102551.39;;;7.57;75.46
75745;BME280;74462;51.366;-0.222;2024-01-25T03:56:20;102549.80;;;7.58;75.40
75745;BME280;74462;51.366;-0.222;2024-01-25T03:57:25;102549.27;;;7.57;75.48
75745;BME280;74462;51.366;-0.222;2024-01-25T03:58:30;102544.05;;;7.60;75.03
75745;BME280;74462;51.366;-0.222;2024-01-25T03:59:35;102548.02;;;7.62;75.39
75745;BME280;74462;51.366;-0.222;2024-01-25T04:00:39;102548.12;;;7.60;75.14
75745;BME280;74462;51.366;-0.222;2024-01-25T04:01:44;102543.66;;;7.61;75.06
75745;BME280;74462;51.366;-0.222;2024-01-25T04:02:50;102541.10;;;7.63;75.52
75745;BME280;74462;51.366;-0.222;2024-01-25T04:03:54;102539.95;;;7.65;75.76
75745;BME280;74462;51.366;-0.222;2024-01-25T04:04:59;102537.20;;;7.68;75.54
75745;BME280;74462;51.366;-0.222;2024-01-25T04:06:04;102537.45;;;7.71;75.80
75745;BME280;74462;51.366;-0.222;2024-01-25T04:07:08;102528.68;;;7.73;75.86
75745;BME280;74462;51.366;-0.222;2024-01-25T04:08:13;102529.27;;;7.76;76.34
75745;BME280;74462;51.366;-0.222;2024-01-25T04:09:17;102527.82;;;7.77;76.85
75745;BME280;74462;51.366;-0.222;2024-01-25T04:10:22;102529.86;;;7.79;76.77
75745;BME280;74462;51.366;-0.222;2024-01-25T04:11:26;102531.66;;;7.83;76.90
75745;BME280;74462;51.366;-0.222;2024-01-25T04:12:31;102532.66;;;7.85;76.83
75745;BME280;74462;51.366;-0.222;2024-01-25T04:13:36;102528.70;;;7.86;77.31
75745;BME280;74462;51.366;-0.222;2024-01-25T04:14:40;102526.23;;;7.87;77.49
75745;BME280;74462;51.366;-0.222;2024-01-25T04:15:45;102522.91;;;7.90;77.49
75745;BME280;74462;51.366;-0.222;2024-01-25T04:16:50;102521.92;;;7.92;77.81
75745;BME280;74462;51.366;-0.222;2024-01-25T04:17:54;102515.66;;;7.94;77.86
75745;BME280;74462;51.366;-0.222;2024-01-25T04:18:59;102514.30;;;7.96;77.96
75745;BME280;74462;51.366;-0.222;2024-01-25T04:20:04;102511.92;;;7.98;77.87
75745;BME280;74462;51.366;-0.222;2024-01-25T04:21:09;102511.51;;;8.00;78.35
75745;BME280;74462;51.366;-0.222;2024-01-25T04:22:13;102512.42;;;8.04;78.07
75745;BME280;74462;51.366;-0.222;2024-01-25T04:23:18;102515.36;;;8.06;78.22
75745;BME280;74462;51.366;-0.222;2024-01-25T04:24:22;102514.71;;;8.09;78.39
75745;BME280;74462;51.366;-0.222;2024-01-25T04:25:27;102515.23;;;8.13;78.36
75745;BME280;74462;51.366;-0.222;2024-01-25T04:26:32;102515.11;;;8.16;78.29
75745;BME280;74462;51.366;-0.222;2024-01-25T04:27:38;102515.98;;;8.21;78.22
75745;BME280;74462;51.366;-0.222;2024-01-25T04:28:42;102514.61;;;8.24;78.00
75745;BME280;74462;51.366;-0.222;2024-01-25T04:29:47;102516.07;;;8.27;78.12
75745;BME280;74462;51.366;-0.222;2024-01-25T04:30:51;102517.09;;;8.33;77.75
75745;BME280;74462;51.366;-0.222;2024-01-25T04:31:56;102516.60;;;8.37;77.93
75745;BME280;74462;51.366;-0.222;2024-01-25T04:33:01;102516.20;;;8.38;77.87
75745;BME280;74462;51.366;-0.222;2024-01-25T04:34:06;102518.79;;;8.43;77.72
75745;BME280;74462;51.366;-0.222;2024-01-25T04:35:10;102518.33;;;8.46;77.86
75745;BME280;74462;51.366;-0.222;2024-01-25T04:36:15;102519.33;;;8.48;78.11
75745;BME280;74462;51.366;-0.222;2024-01-25T04:37:19;102518.66;;;8.46;78.24
75745;BME280;74462;51.366;-0.222;2024-01-25T04:38:24;102514.84;;;8.49;78.40
75745;BME280;74462;51.366;-0.222;2024-01-25T04:39:28;102513.63;;;8.53;78.61
75745;BME280;74462;51.366;-0.222;2024-01-25T04:40:33;102507.88;;;8.55;79.11
75745;BME280;74462;51.366;-0.222;2024-01-25T04:41:38;102508.98;;;8.58;78.85
75745;BME280;74462;51.366;-0.222;2024-01-25T04:42:42;102505.48;;;8.61;78.78
75745;BME280;74462;51.366;-0.222;2024-01-25T04:43:47;102508.46;;;8.61;78.72
75745;BME280;74462;51.366;-0.222;2024-01-25T04:44:51;102507.83;;;8.64;79.00
75745;BME280;74462;51.366;-0.222;2024-01-25T04:45:56;102507.52;;;8.67;78.53
75745;BME280;74462;51.366;-0.222;2024-01-25T04:47:01;102506.40;;;8.72;78.45
75745;BME280;74462;51.366;-0.222;2024-01-25T04:48:06;102504.36;;;8.74;78.24
75745;BME280;74462;51.366;-0.222;2024-01-25T04:49:11;102500.69;;;8.78;78.15
75745;BME280;74462;51.366;-0.222;2024-01-25T04:50:15;102499.19;;;8.80;77.87
75745;BME280;74462;51.366;-0.222;2024-01-25T04:51:20;102495.64;;;8.80;78.41
75745;BME280;74462;51.366;-0.222;2024-01-25T04:52:25;102495.60;;;8.80;78.29
75745;BME280;74462;51.366;-0.222;2024-01-25T04:53:29;102494.19;;;8.80;78.45
75745;BME280;74462;51.366;-0.222;2024-01-25T04:54:34;102492.17;;;8.86;78.00
75745;BME280;74462;51.366;-0.222;2024-01-25T04:55:38;102490.65;;;8.88;77.99
75745;BME280;74462;51.366;-0.222;2024-01-25T04:56:43;102491.59;;;8.91;78.12
75745;BME280;74462;51.366;-0.222;2024-01-25T04:57:47;102493.23;;;8.93;77.73
75745;BME280;74462;51.366;-0.222;2024-01-25T04:58:56;102492.77;;;8.92;78.09
75745;BME280;74462;51.366;-0.222;2024-01-25T05:00:00;102492.13;;;8.95;77.88
75745;BME280;74462;51.366;-0.222;2024-01-25T05:01:05;102487.73;;;8.94;77.97
75745;BME280;74462;51.366;-0.222;2024-01-25T05:02:10;102486.70;;;8.93;78.43
75745;BME280;74462;51.366;-0.222;2024-01-25T05:03:14;102486.11;;;8.95;78.47
75745;BME280;74462;51.366;-0.222;2024-01-25T05:04:19;102484.05;;;8.97;78.34
75745;BME280;74462;51.366;-0.222;2024-01-25T05:05:23;102479.70;;;9.00;78.07
75745;BME280;74462;51.366;-0.222;2024-01-25T05:06:28;102480.07;;;8.99;78.27
75745;BME280;74462;51.366;-0.222;2024-01-25T05:07:32;102483.41;;;9.00;78.40
75745;BME280;74462;51.366;-0.222;2024-01-25T05:08:37;102479.56;;;9.02;78.17
75745;BME280;74462;51.366;-0.222;2024-01-25T05:09:41;102479.18;;;9.03;78.33
75745;BME280;74462;51.366;-0.222;2024-01-25T05:10:46;102476.14;;;9.04;78.56
75745;BME280;74462;51.366;-0.222;2024-01-25T05:11:50;102477.13;;;9.06;78.77
75745;BME280;74462;51.366;-0.222;2024-01-25T05:12:55;102476.98;;;9.08;78.63
75745;BME280;74462;51.366;-0.222;2024-01-25T05:13:59;102478.66;;;9.07;78.73
75745;BME280;74462;51.366;-0.222;2024-01-25T05:15:04;102480.83;;;9.06;79.55
75745;BME280;74462;51.366;-0.222;2024-01-25T05:16:09;102478.16;;;9.06;79.70
75745;BME280;74462;51.366;-0.222;2024-01-25T05:17:13;102479.94;;;9.10;79.66
75745;BME280;74462;51.366;-0.222;2024-01-25T05:18:18;102480.34;;;9.09;80.10
75745;BME280;74462;51.366;-0.222;2024-01-25T05:19:22;102477.59;;;9.10;80.36
75745;BME280;74462;51.366;-0.222;2024-01-25T05:20:28;102483.88;;;9.13;80.41
75745;BME280;74462;51.366;-0.222;2024-01-25T05:21:35;102479.67;;;9.15;80.50
75745;BME280;74462;51.366;-0.222;2024-01-25T05:22:40;102473.48;;;9.18;80.37
75745;BME280;74462;51.366;-0.222;2024-01-25T05:23:45;102481.23;;;9.20;80.64
75745;BME280;74462;51.366;-0.222;2024-01-25T05:24:49;102479.06;;;9.17;81.42
75745;BME280;74462;51.366;-0.222;2024-01-25T05:25:54;102476.27;;;9.20;81.56
75745;BME280;74462;51.366;-0.222;2024-01-25T05:26:58;102468.76;;;9.21;81.59
75745;BME280;74462;51.366;-0.222;2024-01-25T05:28:03;102465.97;;;9.20;81.87
75745;BME280;74462;51.366;-0.222;2024-01-25T05:29:07;102465.77;;;9.20;82.00
75745;BME280;74462;51.366;-0.222;2024-01-25T05:30:13;102465.38;;;9.17;82.43
75745;BME280;74462;51.366;-0.222;2024-01-25T05:31:18;102466.04;;;9.23;82.29
75745;BME280;74462;51.366;-0.222;2024-01-25T05:32:22;102463.10;;;9.21;82.48
75745;BME280;74462;51.366;-0.222;2024-01-25T05:33:27;102465.61;;;9.20;82.76
75745;BME280;74462;51.366;-0.222;2024-01-25T05:34:31;102466.35;;;9.19;83.07
75745;BME280;74462;51.366;-0.222;2024-01-25T05:35:36;102469.88;;;9.16;83.18
75745;BME280;74462;51.366;-0.222;2024-01-25T05:36:41;102465.46;;;9.20;83.18
75745;BME280;74462;51.366;-0.222;2024-01-25T05:37:45;102464.67;;;9.18;83.13
75745;BME280;74462;51.366;-0.222;2024-01-25T05:38:50;102467.34;;;9.21;83.03